Time;durP1;ratioP1;P1;durP2;ratioP2;P2;SDS_P1;SDS_P2;PMS_P1;PMS_P2;Temp;Humidity;BMP_temperature;BMP_pressure;BME280_temperature;BME280_humidity;BME280_pressure;Samples;Min_cycle;Max_cycle;Signal;HPM_P1;HPM_P2
2022/10/17 00:02:07;;;;;;;12.30;3.47;;;;;;;;;;4976905;28;20508;-53
2022/10/17 00:04:33;;;;;;;4.30;2.87;;;;;;;;;;4945165;28;20535;-54
2022/10/17 00:06:59;;;;;;;6.07;2.40;;;;;;;;;;4971590;28;20437;-55
2022/10/17 00:09:25;;;;;;;5.50;2.37;;;;;;;;;;4972682;28;20557;-56
2022/10/17 00:11:51;;;;;;;2.70;2.17;;;;;;;;;;4974595;28;20452;-54
2022/10/17 00:14:17;;;;;;;5.20;3.03;;;;;;;;;;4949801;28;20456;-52
2022/10/17 00:16:43;;;;;;;5.10;2.33;;;;;;;;;;4972604;28;21191;-53
2022/10/17 00:19:09;;;;;;;7.43;3.17;;;;;;;;;;4954070;28;20210;-54
2022/10/17 00:21:34;;;;;;;3.40;2.17;;;;;;;;;;4975079;28;20530;-53
2022/10/17 00:24:00;;;;;;;6.77;3.00;;;;;;;;;;4939062;28;20543;-54
2022/10/17 00:26:28;;;;;;;5.33;3.00;;;;;;;;;;4966898;28;20452;-54
2022/10/17 00:28:54;;;;;;;4.80;2.37;;;;;;;;;;4989660;28;20449;-53
2022/10/17 00:31:20;;;;;;;4.50;2.43;;;;;;;;;;4974432;28;20438;-53
2022/10/17 00:33:46;;;;;;;8.70;2.23;;;;;;;;;;4952967;28;20622;-54
2022/10/17 00:36:13;;;;;;;3.43;2.23;;;;;;;;;;4973490;28;20969;-55
2022/10/17 00:38:40;;;;;;;5.30;2.40;;;;;;;;;;4948669;28;20611;-52
2022/10/17 00:41:06;;;;;;;6.77;2.03;;;;;;;;;;4969708;28;20556;-53
2022/10/17 00:43:48;;;;;;;4.60;2.50;;;;;;;;;;4952766;28;20554;-53
2022/10/17 00:46:14;;;;;;;7.03;2.60;;;;;;;;;;4976654;28;20476;-51
2022/10/17 00:48:40;;;;;;;3.60;2.40;;;;;;;;;;4951799;28;20468;-54
2022/10/17 00:51:06;;;;;;;3.77;1.97;;;;;;;;;;4978288;28;20448;-52
2022/10/17 00:53:32;;;;;;;7.90;2.90;;;;;;;;;;4952545;28;20518;-54
2022/10/17 00:55:58;;;;;;;4.03;2.17;;;;;;;;;;5007674;28;20452;-53
2022/10/17 00:58:24;;;;;;;6.70;3.47;;;;;;;;;;4948825;28;20446;-53
2022/10/17 01:00:50;;;;;;;5.80;2.73;;;;;;;;;;4980302;28;20476;-53
2022/10/17 01:03:16;;;;;;;2.80;2.30;;;;;;;;;;4952055;28;20504;-53
2022/10/17 01:05:42;;;;;;;6.87;2.70;;;;;;;;;;4979465;28;20429;-53
2022/10/17 01:08:08;;;;;;;5.10;2.40;;;;;;;;;;4999035;28;20882;-53
2022/10/17 01:10:38;;;;;;;8.80;2.70;;;;;;;;;;4980833;28;20433;-54
2022/10/17 01:13:08;;;;;;;14.43;3.77;;;;;;;;;;4950664;28;20467;-53
2022/10/17 01:15:43;;;;;;;5.33;3.20;;;;;;;;;;4976478;28;20434;-54
2022/10/17 01:18:12;;;;;;;6.13;2.30;;;;;;;;;;4948009;28;20452;-54
2022/10/17 01:20:51;;;;;;;3.43;2.57;;;;;;;;;;4974738;28;24459;-54
2022/10/17 01:23:27;;;;;;;3.63;2.37;;;;;;;;;;4952503;28;20505;-53
2022/10/17 01:25:53;;;;;;;5.13;2.83;;;;;;;;;;4980043;28;21243;-53
2022/10/17 01:28:28;;;;;;;3.27;2.37;;;;;;;;;;4946806;28;20463;-55
2022/10/17 01:31:14;;;;;;;7.50;2.60;;;;;;;;;;4977500;28;20481;-53
2022/10/17 01:33:45;;;;;;;5.37;2.73;;;;;;;;;;4975475;28;20433;-54
2022/10/17 01:36:24;;;;;;;4.33;3.10;;;;;;;;;;5010073;28;20448;-54
2022/10/17 01:39:11;;;;;;;2.80;1.93;;;;;;;;;;4958793;28;20429;-54
2022/10/17 01:41:40;;;;;;;3.17;2.20;;;;;;;;;;4994440;28;20481;-54
2022/10/17 01:44:11;;;;;;;9.43;3.13;;;;;;;;;;4998875;28;20444;-54
2022/10/17 01:46:44;;;;;;;7.93;2.57;;;;;;;;;;4997926;28;20532;-54
2022/10/17 01:49:10;;;;;;;4.90;2.37;;;;;;;;;;4969591;28;20448;-56
2022/10/17 01:51:41;;;;;;;3.80;2.43;;;;;;;;;;4956622;28;20457;-54
2022/10/17 01:54:10;;;;;;;6.63;2.83;;;;;;;;;;4969679;28;20471;-53
2022/10/17 01:56:36;;;;;;;2.97;2.77;;;;;;;;;;4999493;28;20476;-54
2022/10/17 01:59:12;;;;;;;5.33;2.43;;;;;;;;;;4973558;28;20484;-53
2022/10/17 02:01:40;;;;;;;7.30;2.27;;;;;;;;;;4989547;28;20586;-55
2022/10/17 02:04:06;;;;;;;5.03;2.37;;;;;;;;;;4958203;28;20521;-54
2022/10/17 02:06:35;;;;;;;3.37;2.63;;;;;;;;;;4998685;28;20500;-54
2022/10/17 02:09:01;;;;;;;8.87;2.40;;;;;;;;;;4972396;28;20437;-53
2022/10/17 02:11:27;;;;;;;2.50;2.27;;;;;;;;;;4984312;28;20466;-54
2022/10/17 02:14:02;;;;;;;2.97;1.97;;;;;;;;;;4979123;28;20970;-54
2022/10/17 02:16:33;;;;;;;6.00;3.07;;;;;;;;;;4977389;28;20440;-55
2022/10/17 02:19:11;;;;;;;4.10;2.87;;;;;;;;;;5000048;28;20969;-54
2022/10/17 02:21:41;;;;;;;2.37;2.00;;;;;;;;;;4964404;28;20507;-53
2022/10/17 02:24:27;;;;;;;4.17;3.03;;;;;;;;;;5003680;28;20461;-54
2022/10/17 02:26:57;;;;;;;2.60;2.20;;;;;;;;;;4957581;28;21412;-55
2022/10/17 02:29:25;;;;;;;5.50;2.03;;;;;;;;;;4969001;28;20978;-54
2022/10/17 02:31:51;;;;;;;4.67;2.90;;;;;;;;;;4959667;28;20432;-53
2022/10/17 02:34:39;;;;;;;4.27;2.50;;;;;;;;;;4975947;28;20432;-53
2022/10/17 02:37:08;;;;;;;3.30;2.20;;;;;;;;;;4949333;28;20441;-54
2022/10/17 02:39:34;;;;;;;5.17;2.43;;;;;;;;;;4972338;28;20443;-54
2022/10/17 02:42:00;;;;;;;7.20;2.77;;;;;;;;;;4968051;28;20480;-54
2022/10/17 02:44:26;;;;;;;4.60;2.23;;;;;;;;;;5001765;28;20442;-53
2022/10/17 02:46:55;;;;;;;2.20;1.90;;;;;;;;;;4955584;28;20441;-51
2022/10/17 02:49:22;;;;;;;9.70;2.80;;;;;;;;;;4979613;28;20457;-53
2022/10/17 02:51:51;;;;;;;4.83;2.30;;;;;;;;;;4957505;28;20491;-55
2022/10/17 02:54:33;;;;;;;4.27;2.67;;;;;;;;;;4975172;28;20442;-55
2022/10/17 02:57:06;;;;;;;6.80;3.73;;;;;;;;;;4954385;28;20440;-52
2022/10/17 02:59:32;;;;;;;2.97;2.17;;;;;;;;;;5008569;28;20463;-56
2022/10/17 03:01:58;;;;;;;3.00;2.70;;;;;;;;;;4979335;28;20492;-55
2022/10/17 03:04:24;;;;;;;7.93;2.70;;;;;;;;;;4982471;28;20947;-55
2022/10/17 03:06:50;;;;;;;3.90;2.00;;;;;;;;;;4946194;28;20445;-56
2022/10/17 03:09:16;;;;;;;3.97;2.27;;;;;;;;;;4978354;28;20953;-55
2022/10/17 03:11:42;;;;;;;5.30;2.43;;;;;;;;;;4962314;28;20440;-53
2022/10/17 03:14:08;;;;;;;10.10;2.70;;;;;;;;;;4979140;28;20433;-55
2022/10/17 03:16:34;;;;;;;5.10;2.40;;;;;;;;;;4947394;28;20441;-54
2022/10/17 03:19:00;;;;;;;5.53;2.63;;;;;;;;;;4982251;28;20529;-53
2022/10/17 03:21:26;;;;;;;3.20;2.50;;;;;;;;;;4972672;28;20519;-54
2022/10/17 03:23:52;;;;;;;4.97;2.50;;;;;;;;;;4981498;28;20487;-54
2022/10/17 03:26:18;;;;;;;9.23;2.50;;;;;;;;;;4949431;28;20436;-54
2022/10/17 03:28:44;;;;;;;5.40;2.50;;;;;;;;;;4975249;28;20440;-53
2022/10/17 03:31:11;;;;;;;4.90;2.67;;;;;;;;;;4947263;28;20464;-52
2022/10/17 03:33:37;;;;;;;6.50;3.33;;;;;;;;;;4971679;28;22474;-54
2022/10/17 03:36:06;;;;;;;5.07;2.70;;;;;;;;;;4947824;28;20542;-54
2022/10/17 03:38:33;;;;;;;4.53;3.00;;;;;;;;;;4971676;28;20524;-54
2022/10/17 03:40:59;;;;;;;16.60;2.90;;;;;;;;;;4958341;28;20484;-53
2022/10/17 03:43:25;;;;;;;4.90;2.70;;;;;;;;;;4995694;28;20506;-53
2022/10/17 03:45:51;;;;;;;4.07;2.20;;;;;;;;;;4974422;28;21038;-53
2022/10/17 03:48:17;;;;;;;9.03;2.57;;;;;;;;;;4973121;28;20572;-54
2022/10/17 03:50:43;;;;;;;5.70;2.73;;;;;;;;;;4974214;28;20437;-58
2022/10/17 03:53:08;;;;;;;11.40;2.80;;;;;;;;;;4975099;28;20954;-54
2022/10/17 03:55:35;;;;;;;12.93;3.20;;;;;;;;;;4965225;28;20470;-53
2022/10/17 03:58:01;;;;;;;4.40;2.30;;;;;;;;;;4961659;28;20445;-54
2022/10/17 04:00:26;;;;;;;3.23;2.50;;;;;;;;;;4975752;28;20503;-53
2022/10/17 04:02:52;;;;;;;3.80;2.70;;;;;;;;;;4959581;28;20532;-55
2022/10/17 04:05:20;;;;;;;5.10;2.87;;;;;;;;;;4973960;28;20939;-53
2022/10/17 04:07:46;;;;;;;3.07;2.30;;;;;;;;;;4980073;28;20464;-54
2022/10/17 04:10:12;;;;;;;3.63;2.83;;;;;;;;;;4977137;28;20536;-53
2022/10/17 04:12:38;;;;;;;4.27;2.50;;;;;;;;;;4971151;28;20433;-53
2022/10/17 04:15:04;;;;;;;10.33;2.50;;;;;;;;;;4978183;28;20436;-53
2022/10/17 04:17:30;;;;;;;3.57;2.50;;;;;;;;;;4955025;28;20847;-53
2022/10/17 04:19:56;;;;;;;4.03;3.00;;;;;;;;;;4974060;28;20469;-52
2022/10/17 04:22:22;;;;;;;3.50;2.30;;;;;;;;;;4957951;28;20972;-53
2022/10/17 04:24:48;;;;;;;9.97;2.77;;;;;;;;;;4981824;28;20934;-53
2022/10/17 04:27:14;;;;;;;4.77;3.20;;;;;;;;;;4954611;28;20434;-53
2022/10/17 04:29:40;;;;;;;5.13;3.23;;;;;;;;;;4982873;28;20445;-54
2022/10/17 04:32:06;;;;;;;10.50;4.13;;;;;;;;;;4935540;28;20437;-54
2022/10/17 04:34:32;;;;;;;9.50;2.83;;;;;;;;;;4977074;28;21016;-54
2022/10/17 04:36:58;;;;;;;2.90;2.17;;;;;;;;;;4950834;28;20436;-54
2022/10/17 04:39:24;;;;;;;8.90;2.43;;;;;;;;;;4966424;28;21238;-54
2022/10/17 04:41:50;;;;;;;7.93;2.93;;;;;;;;;;4976400;28;20561;-54
2022/10/17 04:44:16;;;;;;;6.20;4.27;;;;;;;;;;4979223;28;20547;-54
2022/10/17 04:46:42;;;;;;;6.10;3.03;;;;;;;;;;4960484;28;20553;-53
2022/10/17 04:49:09;;;;;;;4.07;3.77;;;;;;;;;;4970474;28;21021;-54
2022/10/17 04:51:35;;;;;;;5.70;4.80;;;;;;;;;;4974613;28;20442;-54
2022/10/17 04:54:00;;;;;;;7.40;3.50;;;;;;;;;;4978891;28;20453;-54
2022/10/17 04:56:27;;;;;;;9.63;4.63;;;;;;;;;;4966472;28;20551;-54
2022/10/17 04:58:53;;;;;;;8.10;5.10;;;;;;;;;;4959928;28;20468;-53
2022/10/17 05:01:20;;;;;;;6.20;4.03;;;;;;;;;;4968623;28;20481;-53
2022/10/17 05:03:46;;;;;;;5.23;3.10;;;;;;;;;;4958939;28;21211;-54
2022/10/17 05:06:19;;;;;;;6.37;3.87;;;;;;;;;;4970664;28;20444;-54
2022/10/17 05:08:45;;;;;;;11.23;4.70;;;;;;;;;;4957900;28;20498;-54
2022/10/17 05:11:42;;;;;;;7.60;4.30;;;;;;;;;;4969558;28;20490;-53
2022/10/17 05:14:08;;;;;;;8.30;3.80;;;;;;;;;;4960653;28;21324;-57
2022/10/17 05:16:34;;;;;;;8.23;3.37;;;;;;;;;;4966619;28;20444;-54
2022/10/17 05:19:00;;;;;;;7.40;3.83;;;;;;;;;;4964032;28;20463;-54
2022/10/17 05:21:26;;;;;;;5.63;3.70;;;;;;;;;;4975355;28;20496;-54
2022/10/17 05:23:52;;;;;;;8.27;3.93;;;;;;;;;;4970756;28;20441;-54
2022/10/17 05:29:01;;;;;;;6.27;3.70;;;;;;;;;;4963745;28;20471;-54
2022/10/17 05:31:27;;;;;;;8.80;4.90;;;;;;;;;;4967134;28;20999;-55
2022/10/17 05:33:53;;;;;;;13.20;7.10;;;;;;;;;;4939128;28;20476;-55
2022/10/17 05:36:19;;;;;;;11.93;5.50;;;;;;;;;;4974218;28;20637;-54
2022/10/17 05:38:48;;;;;;;11.77;5.70;;;;;;;;;;4971586;28;20292;-53
2022/10/17 05:41:14;;;;;;;17.60;6.00;;;;;;;;;;4974770;28;20538;-53
2022/10/17 05:43:40;;;;;;;14.40;5.20;;;;;;;;;;4982007;28;20540;-55
2022/10/17 05:46:14;;;;;;;9.90;4.97;;;;;;;;;;4981202;28;20444;-55
2022/10/17 05:48:40;;;;;;;6.20;4.53;;;;;;;;;;4916991;28;21136;-54
2022/10/17 05:51:07;;;;;;;11.40;5.83;;;;;;;;;;4975047;28;20437;-55
2022/10/17 05:53:34;;;;;;;18.83;6.47;;;;;;;;;;4960232;28;20464;-54
2022/10/17 05:56:01;;;;;;;14.03;4.73;;;;;;;;;;4980189;28;20808;-54
2022/10/17 05:58:27;;;;;;;11.27;3.97;;;;;;;;;;4959442;28;20444;-54
2022/10/17 06:00:57;;;;;;;5.20;3.93;;;;;;;;;;4983354;28;20477;-54
2022/10/17 06:03:23;;;;;;;5.77;4.10;;;;;;;;;;4955928;28;20549;-53
2022/10/17 06:05:49;;;;;;;8.70;3.57;;;;;;;;;;4981854;28;20441;-52
2022/10/17 06:08:15;;;;;;;7.23;3.77;;;;;;;;;;4959729;28;20853;-53
2022/10/17 06:10:41;;;;;;;7.50;3.33;;;;;;;;;;4982307;28;20189;-55
2022/10/17 06:13:07;;;;;;;7.63;5.97;;;;;;;;;;4960899;28;20471;-55
2022/10/17 06:15:33;;;;;;;11.57;3.57;;;;;;;;;;4983766;28;20484;-55
2022/10/17 06:17:59;;;;;;;4.40;3.37;;;;;;;;;;4947127;28;20504;-56
2022/10/17 06:20:25;;;;;;;6.40;3.13;;;;;;;;;;4980409;28;20476;-55
2022/10/17 06:22:51;;;;;;;6.40;3.87;;;;;;;;;;4958867;28;20473;-55
2022/10/17 06:25:17;;;;;;;6.80;3.93;;;;;;;;;;4978486;28;20451;-56
2022/10/17 06:27:43;;;;;;;10.07;3.80;;;;;;;;;;4974329;28;20432;-55
2022/10/17 06:30:09;;;;;;;4.40;3.93;;;;;;;;;;4959475;28;20449;-56
2022/10/17 06:32:35;;;;;;;12.23;3.60;;;;;;;;;;4980284;28;20527;-55
2022/10/17 06:35:01;;;;;;;7.87;3.73;;;;;;;;;;4953695;28;20456;-55
2022/10/17 06:37:30;;;;;;;7.13;3.37;;;;;;;;;;4972166;28;20479;-55
2022/10/17 06:39:56;;;;;;;6.07;3.73;;;;;;;;;;4953009;28;20547;-55
2022/10/17 06:42:22;;;;;;;5.50;3.70;;;;;;;;;;4978314;28;20565;-55
2022/10/17 06:44:48;;;;;;;5.10;3.40;;;;;;;;;;4956156;28;20481;-55
2022/10/17 06:47:14;;;;;;;8.47;3.20;;;;;;;;;;4977431;28;20457;-55
2022/10/17 06:49:40;;;;;;;7.60;3.47;;;;;;;;;;4942233;28;20475;-54
2022/10/17 06:52:06;;;;;;;4.80;2.97;;;;;;;;;;4973093;28;20428;-55
2022/10/17 06:54:32;;;;;;;5.20;3.63;;;;;;;;;;4959174;28;20447;-54
2022/10/17 06:56:58;;;;;;;5.80;3.70;;;;;;;;;;4980372;28;20483;-54
2022/10/17 06:59:24;;;;;;;4.60;3.10;;;;;;;;;;4952857;28;20496;-54
2022/10/17 07:01:50;;;;;;;6.90;3.03;;;;;;;;;;4982741;28;20998;-54
2022/10/17 07:04:16;;;;;;;6.03;3.47;;;;;;;;;;4960983;28;20618;-54
2022/10/17 07:06:42;;;;;;;4.57;2.83;;;;;;;;;;4978972;28;20495;-54
2022/10/17 07:09:08;;;;;;;6.17;3.10;;;;;;;;;;4951471;28;20533;-54
2022/10/17 07:11:34;;;;;;;5.90;3.70;;;;;;;;;;4978403;28;20504;-54
2022/10/17 07:14:00;;;;;;;3.83;2.83;;;;;;;;;;4960242;28;20437;-54
2022/10/17 07:16:26;;;;;;;3.33;2.93;;;;;;;;;;4979229;28;20501;-54
2022/10/17 07:18:53;;;;;;;6.20;3.37;;;;;;;;;;4974105;28;20452;-53
2022/10/17 07:21:19;;;;;;;7.77;3.20;;;;;;;;;;4980292;28;20481;-54
2022/10/17 07:23:45;;;;;;;6.63;5.00;;;;;;;;;;4948206;28;20440;-55
2022/10/17 07:26:12;;;;;;;6.77;3.57;;;;;;;;;;4980473;28;20472;-56
2022/10/17 07:28:38;;;;;;;12.90;4.17;;;;;;;;;;4971564;28;20579;-55
2022/10/17 07:31:08;;;;;;;6.87;4.83;;;;;;;;;;4977501;28;20468;-55
2022/10/17 07:33:34;;;;;;;12.97;6.90;;;;;;;;;;4975063;28;20433;-54
2022/10/17 07:36:00;;;;;;;15.83;5.03;;;;;;;;;;4978282;28;20440;-55
2022/10/17 07:38:27;;;;;;;7.37;4.53;;;;;;;;;;4953390;28;20849;-55
2022/10/17 07:40:59;;;;;;;4.87;4.37;;;;;;;;;;5012806;28;21132;-55
2022/10/17 07:43:25;;;;;;;7.50;4.67;;;;;;;;;;4958100;28;20450;-55
2022/10/17 07:45:51;;;;;;;8.53;7.73;;;;;;;;;;4970755;28;20595;-55
2022/10/17 07:48:17;;;;;;;7.43;6.73;;;;;;;;;;4962680;28;20452;-55
2022/10/17 07:50:43;;;;;;;10.03;8.63;;;;;;;;;;4976313;28;20434;-55
2022/10/17 07:53:09;;;;;;;8.40;7.60;;;;;;;;;;4974114;28;20603;-55
2022/10/17 07:55:38;;;;;;;5.90;4.13;;;;;;;;;;4969523;28;20557;-54
2022/10/17 07:58:07;;;;;;;6.17;3.23;;;;;;;;;;4962054;28;20452;-56
2022/10/17 08:00:33;;;;;;;3.90;3.43;;;;;;;;;;4956792;28;20519;-56
2022/10/17 08:02:59;;;;;;;3.23;2.70;;;;;;;;;;4977834;28;20536;-56
2022/10/17 08:05:25;;;;;;;2.80;2.10;;;;;;;;;;4970995;28;20441;-54
2022/10/17 08:07:51;;;;;;;3.07;2.73;;;;;;;;;;4974142;28;20453;-56
2022/10/17 08:10:17;;;;;;;2.93;2.30;;;;;;;;;;4957218;28;20437;-56
2022/10/17 08:12:43;;;;;;;3.17;2.40;;;;;;;;;;4975855;28;20935;-56
2022/10/17 08:15:09;;;;;;;4.03;2.67;;;;;;;;;;4960932;28;20470;-54
2022/10/17 08:17:35;;;;;;;3.57;2.70;;;;;;;;;;4981577;28;20472;-55
2022/10/17 08:20:01;;;;;;;2.70;2.30;;;;;;;;;;4951914;28;22483;-54
2022/10/17 08:22:27;;;;;;;2.37;1.43;;;;;;;;;;5009875;28;20441;-56
2022/10/17 08:24:53;;;;;;;3.43;2.80;;;;;;;;;;4951054;28;20463;-56
2022/10/17 08:27:27;;;;;;;4.47;2.30;;;;;;;;;;4975939;28;20480;-56
2022/10/17 08:29:53;;;;;;;3.63;2.57;;;;;;;;;;4931063;28;21028;-55
2022/10/17 08:32:20;;;;;;;3.20;2.60;;;;;;;;;;4948547;28;20445;-55
2022/10/17 08:34:46;;;;;;;5.53;2.53;;;;;;;;;;4978986;28;20436;-54
2022/10/17 08:37:15;;;;;;;3.00;2.10;;;;;;;;;;4956270;28;20445;-53
2022/10/17 08:39:41;;;;;;;14.50;2.60;;;;;;;;;;4980219;28;20436;-55
2022/10/17 08:42:25;;;;;;;3.50;2.30;;;;;;;;;;4952782;28;20523;-55
2022/10/17 08:45:10;;;;;;;3.10;2.57;;;;;;;;;;4979076;28;20851;-55
2022/10/17 08:47:40;;;;;;;5.10;2.20;;;;;;;;;;4975137;28;20448;-54
2022/10/17 08:50:07;;;;;;;3.80;2.30;;;;;;;;;;4980526;28;20532;-56
2022/10/17 08:52:41;;;;;;;3.30;1.90;;;;;;;;;;4987815;28;20449;-56
2022/10/17 08:55:18;;;;;;;6.43;4.07;;;;;;;;;;4977304;28;20833;-55
2022/10/17 08:57:44;;;;;;;5.47;3.00;;;;;;;;;;4953300;28;20460;-55
2022/10/17 09:00:20;;;;;;;3.53;2.20;;;;;;;;;;4976477;28;20476;-55
2022/10/17 09:02:48;;;;;;;3.00;2.37;;;;;;;;;;4950401;28;20429;-55
2022/10/17 09:05:32;;;;;;;4.33;2.83;;;;;;;;;;4977641;28;20448;-55
2022/10/17 09:08:14;;;;;;;3.10;2.50;;;;;;;;;;5005924;28;20487;-55
2022/10/17 09:10:49;;;;;;;3.60;2.30;;;;;;;;;;4972892;28;20443;-56
2022/10/17 09:13:33;;;;;;;2.93;2.37;;;;;;;;;;4966748;28;20591;-54
2022/10/17 09:16:09;;;;;;;7.10;2.47;;;;;;;;;;4964336;28;21333;-55
2022/10/17 09:18:55;;;;;;;8.43;2.30;;;;;;;;;;4980427;28;20441;-56
2022/10/17 09:21:23;;;;;;;3.70;2.17;;;;;;;;;;4959937;28;20485;-55
2022/10/17 09:23:50;;;;;;;3.37;2.00;;;;;;;;;;4983155;28;20516;-55
2022/10/17 09:26:16;;;;;;;4.33;2.13;;;;;;;;;;5014710;28;20495;-55
2022/10/17 09:28:42;;;;;;;3.20;2.00;;;;;;;;;;4981159;28;20839;-55
2022/10/17 09:31:15;;;;;;;3.23;2.10;;;;;;;;;;4969679;28;21213;-55
2022/10/17 09:33:42;;;;;;;3.97;2.00;;;;;;;;;;4975380;28;20535;-55
2022/10/17 09:36:16;;;;;;;6.13;2.13;;;;;;;;;;5007243;28;20950;-55
2022/10/17 09:38:43;;;;;;;5.83;2.37;;;;;;;;;;4951772;28;20511;-57
2022/10/17 09:41:24;;;;;;;2.80;1.90;;;;;;;;;;4957702;28;20515;-55
2022/10/17 09:43:52;;;;;;;3.30;2.00;;;;;;;;;;4925541;28;20535;-55
2022/10/17 09:46:22;;;;;;;4.50;2.03;;;;;;;;;;4939923;28;20473;-56
2022/10/17 09:48:49;;;;;;;3.37;2.03;;;;;;;;;;4977034;28;20897;-56
2022/10/17 09:51:15;;;;;;;3.53;2.13;;;;;;;;;;4976236;28;20539;-56
2022/10/17 09:53:42;;;;;;;2.83;1.97;;;;;;;;;;4997075;28;20505;-56
2022/10/17 09:56:10;;;;;;;5.10;2.50;;;;;;;;;;4959080;28;20445;-57
2022/10/17 09:58:46;;;;;;;2.77;2.00;;;;;;;;;;5011615;28;20876;-57
2022/10/17 10:01:15;;;;;;;3.30;2.03;;;;;;;;;;4961030;28;20879;-56
2022/10/17 10:03:41;;;;;;;3.10;2.37;;;;;;;;;;4976944;28;20440;-57
2022/10/17 10:06:17;;;;;;;2.93;2.20;;;;;;;;;;4944134;28;20962;-58
2022/10/17 10:08:50;;;;;;;4.73;2.70;;;;;;;;;;4974880;28;21095;-56
2022/10/17 10:11:16;;;;;;;5.30;2.17;;;;;;;;;;4977666;28;20426;-56
2022/10/17 10:13:42;;;;;;;3.23;1.80;;;;;;;;;;4983976;28;21033;-56
2022/10/17 10:16:32;;;;;;;4.07;2.27;;;;;;;;;;4952928;28;20981;-56
2022/10/17 10:18:58;;;;;;;6.80;2.53;;;;;;;;;;4981460;28;20563;-56
2022/10/17 10:21:25;;;;;;;4.73;2.23;;;;;;;;;;4977232;28;21401;-56
2022/10/17 10:24:04;;;;;;;2.83;2.17;;;;;;;;;;4981866;28;20437;-57
2022/10/17 10:26:40;;;;;;;3.50;2.90;;;;;;;;;;4959352;28;21436;-56
2022/10/17 10:29:21;;;;;;;3.30;2.57;;;;;;;;;;4980255;28;20459;-56
2022/10/17 10:31:47;;;;;;;3.17;1.90;;;;;;;;;;4960707;28;20455;-57
2022/10/17 10:34:34;;;;;;;8.20;2.40;;;;;;;;;;4979090;28;20437;-55
2022/10/17 10:37:04;;;;;;;3.00;2.13;;;;;;;;;;4957253;28;21014;-54
2022/10/17 10:39:30;;;;;;;5.30;1.80;;;;;;;;;;4977217;28;20448;-56
2022/10/17 10:41:56;;;;;;;3.03;2.00;;;;;;;;;;4965273;28;22663;-56
2022/10/17 10:44:23;;;;;;;4.17;2.13;;;;;;;;;;4971004;28;20437;-57
2022/10/17 10:47:05;;;;;;;6.20;1.90;;;;;;;;;;4965501;28;20437;-55
2022/10/17 10:49:31;;;;;;;5.23;2.10;;;;;;;;;;4976733;28;20496;-55
2022/10/17 10:51:57;;;;;;;4.50;2.00;;;;;;;;;;4980785;28;20498;-54
2022/10/17 10:54:25;;;;;;;3.60;1.70;;;;;;;;;;4972461;28;20437;-57
2022/10/17 10:56:52;;;;;;;4.73;2.37;;;;;;;;;;4968771;28;20290;-54
2022/10/17 10:59:20;;;;;;;4.40;1.90;;;;;;;;;;4964538;28;20475;-57
2022/10/17 11:01:48;;;;;;;4.67;1.83;;;;;;;;;;4996840;28;20477;-56
2022/10/17 11:04:33;;;;;;;4.33;1.80;;;;;;;;;;4965182;28;20449;-57
2022/10/17 11:07:14;;;;;;;2.40;2.03;;;;;;;;;;4962217;28;20476;-55
2022/10/17 11:09:52;;;;;;;4.27;2.20;;;;;;;;;;4966236;28;20510;-56
2022/10/17 11:12:24;;;;;;;2.43;1.57;;;;;;;;;;4978543;28;20523;-56
2022/10/17 11:15:06;;;;;;;4.57;1.80;;;;;;;;;;5015488;28;20473;-56
2022/10/17 11:17:52;;;;;;;2.77;1.93;;;;;;;;;;5008472;28;20456;-56
2022/10/17 11:20:20;;;;;;;3.33;1.90;;;;;;;;;;4978569;28;20475;-56
2022/10/17 11:22:51;;;;;;;4.70;1.87;;;;;;;;;;4982818;28;20484;-58
2022/10/17 11:25:20;;;;;;;3.80;1.73;;;;;;;;;;4989358;28;20434;-56
2022/10/17 11:27:46;;;;;;;6.17;2.03;;;;;;;;;;4957738;28;20499;-58
2022/10/17 11:30:13;;;;;;;4.63;1.67;;;;;;;;;;4982599;28;20434;-56
2022/10/17 11:32:41;;;;;;;6.70;1.97;;;;;;;;;;5002401;28;20448;-56
2022/10/17 11:35:08;;;;;;;3.43;2.03;;;;;;;;;;4982647;28;20475;-57
2022/10/17 11:37:34;;;;;;;4.80;2.37;;;;;;;;;;4983612;28;20444;-55
2022/10/17 11:40:02;;;;;;;4.03;1.70;;;;;;;;;;4999784;28;21106;-59
2022/10/17 11:42:32;;;;;;;3.67;1.80;;;;;;;;;;4949521;28;20494;-57
2022/10/17 11:45:00;;;;;;;4.00;2.03;;;;;;;;;;4998268;28;20446;-57
2022/10/17 11:47:38;;;;;;;6.87;2.33;;;;;;;;;;4972283;28;20463;-57
2022/10/17 11:50:19;;;;;;;4.03;3.47;;;;;;;;;;4969625;28;20446;-57
2022/10/17 11:52:48;;;;;;;3.60;1.90;;;;;;;;;;4966144;28;20849;-56
2022/10/17 11:55:19;;;;;;;4.90;2.23;;;;;;;;;;4972394;28;20429;-57
2022/10/17 11:57:51;;;;;;;2.57;1.67;;;;;;;;;;4941142;28;20729;-54
2022/10/17 12:00:17;;;;;;;3.70;2.53;;;;;;;;;;4968352;28;20520;-56
2022/10/17 12:02:52;;;;;;;3.63;2.03;;;;;;;;;;4966179;28;20581;-54
2022/10/17 12:05:21;;;;;;;7.20;2.10;;;;;;;;;;4921296;28;21225;-56
2022/10/17 12:07:53;;;;;;;4.97;1.90;;;;;;;;;;4966685;28;20440;-54
2022/10/17 12:10:42;;;;;;;2.90;1.90;;;;;;;;;;4985292;28;20856;-55
2022/10/17 12:13:27;;;;;;;3.90;1.60;;;;;;;;;;4966695;28;20449;-57
2022/10/17 12:15:53;;;;;;;4.30;2.07;;;;;;;;;;4940740;28;20838;-56
2022/10/17 12:18:19;;;;;;;4.07;1.90;;;;;;;;;;4971248;28;20434;-56
2022/10/17 12:20:58;;;;;;;7.03;1.90;;;;;;;;;;4948361;28;20472;-57
2022/10/17 12:23:27;;;;;;;4.53;2.00;;;;;;;;;;5001563;28;20522;-55
2022/10/17 12:26:00;;;;;;;4.93;2.00;;;;;;;;;;4947415;28;21491;-56
2022/10/17 12:28:26;;;;;;;4.60;2.03;;;;;;;;;;4975875;28;20791;-56
2022/10/17 12:30:54;;;;;;;4.20;2.33;;;;;;;;;;4966879;28;20553;-56
2022/10/17 12:33:26;;;;;;;4.03;1.80;;;;;;;;;;4975724;28;20429;-55
2022/10/17 12:36:11;;;;;;;2.87;1.90;;;;;;;;;;4975001;28;20450;-53
2022/10/17 12:38:37;;;;;;;6.50;1.97;;;;;;;;;;4971655;28;20441;-55
2022/10/17 12:41:03;;;;;;;5.60;2.30;;;;;;;;;;4954949;28;20484;-55
2022/10/17 12:43:29;;;;;;;2.67;1.67;;;;;;;;;;4970991;28;20313;-55
2022/10/17 12:45:56;;;;;;;2.97;1.73;;;;;;;;;;4948288;28;21409;-55
2022/10/17 12:48:34;;;;;;;3.50;2.20;;;;;;;;;;4976792;28;20437;-55
2022/10/17 12:51:09;;;;;;;3.87;1.80;;;;;;;;;;4955475;28;20460;-54
2022/10/17 12:53:36;;;;;;;7.80;2.50;;;;;;;;;;4979407;28;20500;-56
2022/10/17 12:56:01;;;;;;;3.20;2.10;;;;;;;;;;4948895;28;20456;-56
2022/10/17 12:58:27;;;;;;;2.83;1.60;;;;;;;;;;4987055;28;20437;-56
2022/10/17 13:00:54;;;;;;;4.07;2.10;;;;;;;;;;4979262;28;20685;-56
2022/10/17 13:03:28;;;;;;;5.40;2.00;;;;;;;;;;4982232;28;20954;-55
2022/10/17 13:05:55;;;;;;;6.10;2.23;;;;;;;;;;4977180;28;20441;-55
2022/10/17 13:08:22;;;;;;;4.03;2.40;;;;;;;;;;5010889;28;20635;-57
2022/10/17 13:10:49;;;;;;;9.93;8.90;;;;;;;;;;4962308;28;20491;-57
2022/10/17 13:13:16;;;;;;;10.30;7.67;;;;;;;;;;4962973;28;20459;-54
2022/10/17 13:15:45;;;;;;;5.33;3.27;;;;;;;;;;4934969;28;20444;-57
2022/10/17 13:18:16;;;;;;;8.90;5.10;;;;;;;;;;4972459;28;20471;-57
2022/10/17 13:20:42;;;;;;;4.80;2.70;;;;;;;;;;4966176;28;20485;-55
2022/10/17 13:23:21;;;;;;;12.07;2.67;;;;;;;;;;4974965;28;21067;-57
2022/10/17 13:25:47;;;;;;;9.20;3.27;;;;;;;;;;4966807;28;20449;-57
2022/10/17 13:28:13;;;;;;;10.13;4.40;;;;;;;;;;4984230;28;20506;-56
2022/10/17 13:30:39;;;;;;;6.83;3.90;;;;;;;;;;4953236;28;21022;-56
2022/10/17 13:33:16;;;;;;;9.80;4.77;;;;;;;;;;4982229;28;20443;-55
2022/10/17 13:35:42;;;;;;;15.23;8.53;;;;;;;;;;4965879;28;20856;-54
2022/10/17 13:38:07;;;;;;;18.77;14.03;;;;;;;;;;4977559;28;20433;-56
2022/10/17 13:40:37;;;;;;;11.03;6.43;;;;;;;;;;4971417;28;20477;-54
2022/10/17 13:43:05;;;;;;;4.20;2.70;;;;;;;;;;4971116;28;20474;-54
2022/10/17 13:45:32;;;;;;;6.57;3.30;;;;;;;;;;4970673;28;20906;-55
2022/10/17 13:48:05;;;;;;;3.20;2.60;;;;;;;;;;4952258;28;20497;-55
2022/10/17 13:50:35;;;;;;;6.73;2.70;;;;;;;;;;4973520;28;20445;-55
2022/10/17 13:53:38;;;;;;;5.17;2.33;;;;;;;;;;4993530;28;20440;-54
2022/10/17 13:56:05;;;;;;;5.10;2.77;;;;;;;;;;4956045;28;20897;-55
2022/10/17 13:58:34;;;;;;;3.40;2.23;;;;;;;;;;4975807;28;20453;-55
2022/10/17 14:01:00;;;;;;;5.07;2.40;;;;;;;;;;4960343;28;20512;-56
2022/10/17 14:03:26;;;;;;;5.07;3.50;;;;;;;;;;4961917;28;21247;-55
2022/10/17 14:06:04;;;;;;;6.73;4.40;;;;;;;;;;4960010;28;21630;-56
2022/10/17 14:08:30;;;;;;;13.57;7.80;;;;;;;;;;4964905;28;20498;-56
2022/10/17 14:10:56;;;;;;;7.27;4.73;;;;;;;;;;4978960;28;20420;-57
2022/10/17 14:13:23;;;;;;;4.90;3.47;;;;;;;;;;4979378;28;21232;-57
2022/10/17 14:15:51;;;;;;;5.73;2.30;;;;;;;;;;4961466;28;21075;-54
2022/10/17 14:18:18;;;;;;;7.10;2.33;;;;;;;;;;4963281;28;20463;-57
2022/10/17 14:20:48;;;;;;;8.37;6.03;;;;;;;;;;4998305;28;20484;-54
2022/10/17 14:23:31;;;;;;;3.43;2.80;;;;;;;;;;4965770;28;21013;-54
2022/10/17 14:26:04;;;;;;;7.10;2.53;;;;;;;;;;4962662;28;20459;-55
2022/10/17 14:28:30;;;;;;;3.50;2.43;;;;;;;;;;4951042;28;20444;-54
2022/10/17 14:31:07;;;;;;;4.60;2.80;;;;;;;;;;4975039;28;20444;-56
2022/10/17 14:33:34;;;;;;;5.33;2.50;;;;;;;;;;4950057;28;20448;-57
2022/10/17 14:36:00;;;;;;;5.20;3.00;;;;;;;;;;5010454;28;20452;-57
2022/10/17 14:38:26;;;;;;;4.10;1.97;;;;;;;;;;4943136;28;20448;-56
2022/10/17 14:40:53;;;;;;;6.23;1.90;;;;;;;;;;4998388;28;20553;-57
2022/10/17 14:43:20;;;;;;;5.33;2.50;;;;;;;;;;4969914;28;20448;-57
2022/10/17 14:45:46;;;;;;;3.47;2.70;;;;;;;;;;4983239;28;20440;-57
2022/10/17 14:48:18;;;;;;;3.50;2.07;;;;;;;;;;4970950;28;20436;-54
2022/10/17 14:51:02;;;;;;;6.37;2.43;;;;;;;;;;4936571;28;21142;-56
2022/10/17 14:53:31;;;;;;;4.67;2.90;;;;;;;;;;4974869;28;20437;-56
2022/10/17 14:55:58;;;;;;;4.63;2.27;;;;;;;;;;4957408;28;20449;-56